sensor_id;sensor_type;location;lat;lon;timestamp;pressure;altitude;pressure_sealevel;temperature;humidity
17615;BME280;8926;49.720;6.576;2022-10-16T00:01:04;99410.38;;;15.60;96.80
17615;BME280;8926;49.720;6.576;2022-10-16T00:03:30;99412.06;;;15.61;96.71
17615;BME280;8926;49.720;6.576;2022-10-16T00:05:59;99397.94;;;15.63;96.33
17615;BME280;8926;49.720;6.576;2022-10-16T00:08:25;99397.94;;;15.63;96.35
17615;BME280;8926;49.720;6.576;2022-10-16T00:10:50;99403.19;;;15.63;96.55
17615;BME280;8926;49.720;6.576;2022-10-16T00:13:15;99408.47;;;15.63;96.22
17615;BME280;8926;49.720;6.576;2022-10-16T00:15:43;99406.28;;;15.68;96.46
17615;BME280;8926;49.720;6.576;2022-10-16T00:18:09;99413.22;;;15.69;95.89
17615;BME280;8926;49.720;6.576;2022-10-16T00:20:35;99407.72;;;15.72;96.37
17615;BME280;8926;49.720;6.576;2022-10-16T00:23:02;99414.66;;;15.73;95.79
17615;BME280;8926;49.720;6.576;2022-10-16T00:25:28;99421.59;;;15.74;95.83
17615;BME280;8926;49.720;6.576;2022-10-16T00:27:53;99423.25;;;15.75;95.69
17615;BME280;8926;49.720;6.576;2022-10-16T00:30:19;99423.25;;;15.75;95.47
17615;BME280;8926;49.720;6.576;2022-10-16T00:32:44;99414.66;;;15.73;95.55
17615;BME280;8926;49.720;6.576;2022-10-16T00:35:09;99418.25;;;15.72;95.83
17615;BME280;8926;49.720;6.576;2022-10-16T00:37:35;99416.56;;;15.71;95.85
17615;BME280;8926;49.720;6.576;2022-10-16T00:40:00;99415.75;;;15.70;95.99
17615;BME280;8926;49.720;6.576;2022-10-16T00:42:25;99417.53;;;15.70;95.96
17615;BME280;8926;49.720;6.576;2022-10-16T00:44:56;99425.69;;;15.67;95.70
17615;BME280;8926;49.720;6.576;2022-10-16T00:47:29;99416.38;;;15.63;95.87
17615;BME280;8926;49.720;6.576;2022-10-16T00:50:04;99429.09;;;15.57;96.30
17615;BME280;8926;49.720;6.576;2022-10-16T00:52:31;99431.94;;;15.54;96.72
17615;BME280;8926;49.720;6.576;2022-10-16T00:54:57;99440.59;;;15.56;96.74
17615;BME280;8926;49.720;6.576;2022-10-16T00:57:23;99445.56;;;15.59;96.56
17615;BME280;8926;49.720;6.576;2022-10-16T00:59:50;99441.44;;;15.57;96.39
17615;BME280;8926;49.720;6.576;2022-10-16T01:02:16;99440.81;;;15.53;97.11
17615;BME280;8926;49.720;6.576;2022-10-16T01:04:52;99436.38;;;15.54;96.78
17615;BME280;8926;49.720;6.576;2022-10-16T01:07:46;99435.53;;;15.53;96.61
17615;BME280;8926;49.720;6.576;2022-10-16T01:13:03;99439.63;;;15.46;97.88
17615;BME280;8926;49.720;6.576;2022-10-16T01:15:46;99441.56;;;15.44;98.25
17615;BME280;8926;49.720;6.576;2022-10-16T01:18:34;99446.81;;;15.44;98.08
17615;BME280;8926;49.720;6.576;2022-10-16T01:21:04;99444.91;;;15.46;98.33
17615;BME280;8926;49.720;6.576;2022-10-16T01:27:00;99455.44;;;15.46;98.19
17615;BME280;8926;49.720;6.576;2022-10-16T01:29:34;99458.78;;;15.48;98.18
17615;BME280;8926;49.720;6.576;2022-10-16T01:32:10;99463.91;;;15.50;98.10
17615;BME280;8926;49.720;6.576;2022-10-16T01:34:43;99461.88;;;15.53;97.87
17615;BME280;8926;49.720;6.576;2022-10-16T01:37:25;99450.63;;;15.51;97.72
17615;BME280;8926;49.720;6.576;2022-10-16T01:39:58;99444.41;;;15.52;97.71
17615;BME280;8926;49.720;6.576;2022-10-16T01:42:30;99450.50;;;15.53;97.44
17615;BME280;8926;49.720;6.576;2022-10-16T01:44:58;99451.34;;;15.53;97.47
17615;BME280;8926;49.720;6.576;2022-10-16T01:47:25;99442.47;;;15.54;97.44
17615;BME280;8926;49.720;6.576;2022-10-16T01:49:53;99440.81;;;15.53;97.52
17615;BME280;8926;49.720;6.576;2022-10-16T01:52:23;99449.66;;;15.52;97.45
17615;BME280;8926;49.720;6.576;2022-10-16T01:54:52;99459.25;;;15.53;97.30
17615;BME280;8926;49.720;6.576;2022-10-16T01:57:20;99464.03;;;15.48;97.33
17615;BME280;8926;49.720;6.576;2022-10-16T01:59:49;99448.25;;;15.48;97.37
17615;BME280;8926;49.720;6.576;2022-10-16T02:02:17;99429.69;;;15.50;97.45
17615;BME280;8926;49.720;6.576;2022-10-16T02:04:51;99439.38;;;15.49;97.14
17615;BME280;8926;49.720;6.576;2022-10-16T02:07:18;99455.19;;;15.49;96.83
17615;BME280;8926;49.720;6.576;2022-10-16T02:09:44;99464.03;;;15.48;97.20
17615;BME280;8926;49.720;6.576;2022-10-16T02:12:31;99470.25;;;15.47;97.33
17615;BME280;8926;49.720;6.576;2022-10-16T02:14:57;99463.19;;;15.48;98.09
17615;BME280;8926;49.720;6.576;2022-10-16T02:17:23;99472.06;;;15.47;97.76
17615;BME280;8926;49.720;6.576;2022-10-16T02:19:51;99463.19;;;15.48;97.58
17615;BME280;8926;49.720;6.576;2022-10-16T02:22:24;99457.81;;;15.49;97.55
17615;BME280;8926;49.720;6.576;2022-10-16T02:25:17;99462.13;;;15.50;96.93
17615;BME280;8926;49.720;6.576;2022-10-16T02:27:56;99450.75;;;15.50;97.17
17615;BME280;8926;49.720;6.576;2022-10-16T02:30:28;99466.41;;;15.51;97.26
17615;BME280;8926;49.720;6.576;2022-10-16T02:32:55;99466.41;;;15.51;97.15
17615;BME280;8926;49.720;6.576;2022-10-16T02:35:23;99453.25;;;15.51;96.92
17615;BME280;8926;49.720;6.576;2022-10-16T02:37:50;99449.66;;;15.52;96.77
17615;BME280;8926;49.720;6.576;2022-10-16T02:40:16;99444.41;;;15.52;96.69
17615;BME280;8926;49.720;6.576;2022-10-16T02:42:42;99453.25;;;15.51;96.79
17615;BME280;8926;49.720;6.576;2022-10-16T02:45:09;99463.78;;;15.51;96.50
17615;BME280;8926;49.720;6.576;2022-10-16T02:47:34;99465.72;;;15.49;97.11
17615;BME280;8926;49.720;6.576;2022-10-16T02:50:00;99462.97;;;15.51;97.07
17615;BME280;8926;49.720;6.576;2022-10-16T02:52:25;99455.19;;;15.49;97.00
17615;BME280;8926;49.720;6.576;2022-10-16T02:54:50;99463.19;;;15.48;97.02
17615;BME280;8926;49.720;6.576;2022-10-16T02:57:17;99467.38;;;15.50;97.20
17615;BME280;8926;49.720;6.576;2022-10-16T02:59:42;99467.38;;;15.50;96.80
17615;BME280;8926;49.720;6.576;2022-10-16T03:02:07;99456.00;;;15.50;96.81
17615;BME280;8926;49.720;6.576;2022-10-16T03:04:33;99456.72;;;15.52;96.57
17615;BME280;8926;49.720;6.576;2022-10-16T03:06:58;99451.72;;;15.49;96.59
17615;BME280;8926;49.720;6.576;2022-10-16T03:09:23;99449.91;;;15.49;96.95
17615;BME280;8926;49.720;6.576;2022-10-16T03:11:48;99453.25;;;15.51;97.00
17615;BME280;8926;49.720;6.576;2022-10-16T03:14:14;99454.09;;;15.52;97.26
17615;BME280;8926;49.720;6.576;2022-10-16T03:16:39;99467.13;;;15.53;96.80
17615;BME280;8926;49.720;6.576;2022-10-16T03:19:04;99467.13;;;15.53;96.80
17615;BME280;8926;49.720;6.576;2022-10-16T03:21:30;99472.41;;;15.53;96.70
17615;BME280;8926;49.720;6.576;2022-10-16T03:23:55;99470.47;;;15.55;96.57
17615;BME280;8926;49.720;6.576;2022-10-16T03:26:20;99473.25;;;15.54;96.77
17615;BME280;8926;49.720;6.576;2022-10-16T03:28:46;99471.44;;;15.54;96.33
17615;BME280;8926;49.720;6.576;2022-10-16T03:31:11;99467.84;;;15.55;96.56
17615;BME280;8926;49.720;6.576;2022-10-16T03:33:36;99470.59;;;15.54;96.37
17615;BME280;8926;49.720;6.576;2022-10-16T03:36:02;99466.09;;;15.56;96.57
17615;BME280;8926;49.720;6.576;2022-10-16T03:38:27;99463.53;;;15.54;96.42
17615;BME280;8926;49.720;6.576;2022-10-16T03:40:52;99470.72;;;15.52;96.09
17615;BME280;8926;49.720;6.576;2022-10-16T03:43:18;99471.69;;;15.51;96.53
17615;BME280;8926;49.720;6.576;2022-10-16T03:45:43;99475.28;;;15.50;96.86
17615;BME280;8926;49.720;6.576;2022-10-16T03:48:09;99476.00;;;15.52;96.19
17615;BME280;8926;49.720;6.576;2022-10-16T03:50:34;99476.00;;;15.52;96.46
17615;BME280;8926;49.720;6.576;2022-10-16T03:52:59;99481.50;;;15.49;95.80
17615;BME280;8926;49.720;6.576;2022-10-16T03:55:24;99479.84;;;15.48;95.95
17615;BME280;8926;49.720;6.576;2022-10-16T03:57:50;99474.69;;;15.47;96.40
17615;BME280;8926;49.720;6.576;2022-10-16T04:00:15;99486.78;;;15.49;96.80
17615;BME280;8926;49.720;6.576;2022-10-16T04:02:40;99482.47;;;15.48;96.88
17615;BME280;8926;49.720;6.576;2022-10-16T04:05:06;99485.09;;;15.48;96.46
17615;BME280;8926;49.720;6.576;2022-10-16T04:07:32;99485.81;;;15.50;96.41
17615;BME280;8926;49.720;6.576;2022-10-16T04:09:57;99476.25;;;15.49;96.12
17615;BME280;8926;49.720;6.576;2022-10-16T04:12:24;99475.41;;;15.49;95.89
17615;BME280;8926;49.720;6.576;2022-10-16T04:14:49;99478.88;;;15.49;95.93
17615;BME280;8926;49.720;6.576;2022-10-16T04:17:14;99487.50;;;15.51;95.82
17615;BME280;8926;49.720;6.576;2022-10-16T04:19:40;99490.13;;;15.51;95.90
17615;BME280;8926;49.720;6.576;2022-10-16T04:22:05;99493.47;;;15.53;96.13
17615;BME280;8926;49.720;6.576;2022-10-16T04:24:30;99483.19;;;15.50;95.86
17615;BME280;8926;49.720;6.576;2022-10-16T04:26:55;99498.97;;;15.50;95.71
17615;BME280;8926;49.720;6.576;2022-10-16T04:29:21;99488.44;;;15.50;95.67
17615;BME280;8926;49.720;6.576;2022-10-16T04:31:46;99500.66;;;15.51;95.66
17615;BME280;8926;49.720;6.576;2022-10-16T04:34:12;99504.25;;;15.50;95.85
17615;BME280;8926;49.720;6.576;2022-10-16T04:36:37;99498.84;;;15.52;96.01
17615;BME280;8926;49.720;6.576;2022-10-16T04:39:03;99505.91;;;15.51;95.84
17615;BME280;8926;49.720;6.576;2022-10-16T04:41:28;99508.53;;;15.51;95.42
17615;BME280;8926;49.720;6.576;2022-10-16T04:43:53;99511.53;;;15.47;95.80
17615;BME280;8926;49.720;6.576;2022-10-16T04:46:19;99514.06;;;15.48;95.78
17615;BME280;8926;49.720;6.576;2022-10-16T04:48:44;99518.38;;;15.49;95.88
17615;BME280;8926;49.720;6.576;2022-10-16T04:51:09;99518.38;;;15.49;95.58
17615;BME280;8926;49.720;6.576;2022-10-16T04:53:35;99520.03;;;15.50;95.00
17615;BME280;8926;49.720;6.576;2022-10-16T04:56:01;99523.38;;;15.52;95.47
17615;BME280;8926;49.720;6.576;2022-10-16T04:58:26;99527.81;;;15.52;95.00
17615;BME280;8926;49.720;6.576;2022-10-16T05:00:52;99521.72;;;15.51;95.18
17615;BME280;8926;49.720;6.576;2022-10-16T05:03:17;99518.38;;;15.49;94.67
17615;BME280;8926;49.720;6.576;2022-10-16T05:05:44;99515.03;;;15.47;95.13
17615;BME280;8926;49.720;6.576;2022-10-16T05:08:14;99518.59;;;15.46;94.70
17615;BME280;8926;49.720;6.576;2022-10-16T05:10:43;99524.00;;;15.45;94.94
17615;BME280;8926;49.720;6.576;2022-10-16T05:13:09;99519.69;;;15.44;95.17
17615;BME280;8926;49.720;6.576;2022-10-16T05:15:35;99531.06;;;15.44;94.85
17615;BME280;8926;49.720;6.576;2022-10-16T05:18:00;99538.00;;;15.45;94.95
17615;BME280;8926;49.720;6.576;2022-10-16T05:20:25;99540.63;;;15.45;95.12
17615;BME280;8926;49.720;6.576;2022-10-16T05:22:51;99546.84;;;15.44;95.04
17615;BME280;8926;49.720;6.576;2022-10-16T05:25:16;99544.22;;;15.44;95.14
17615;BME280;8926;49.720;6.576;2022-10-16T05:27:42;99552.97;;;15.45;95.31
17615;BME280;8926;49.720;6.576;2022-10-16T05:30:08;99546.13;;;15.42;95.51
17615;BME280;8926;49.720;6.576;2022-10-16T05:32:33;99540.16;;;15.40;95.19
17615;BME280;8926;49.720;6.576;2022-10-16T05:34:59;99539.19;;;15.41;95.12
17615;BME280;8926;49.720;6.576;2022-10-16T05:37:25;99551.53;;;15.41;95.39
17615;BME280;8926;49.720;6.576;2022-10-16T05:39:50;99547.09;;;15.41;95.28
17615;BME280;8926;49.720;6.576;2022-10-16T05:42:16;99554.28;;;15.39;95.21
17615;BME280;8926;49.720;6.576;2022-10-16T05:44:41;99554.28;;;15.39;95.21
17615;BME280;8926;49.720;6.576;2022-10-16T05:47:06;99543.75;;;15.39;95.37
17615;BME280;8926;49.720;6.576;2022-10-16T05:49:31;99547.34;;;15.38;95.38
17615;BME280;8926;49.720;6.576;2022-10-16T05:51:57;99548.16;;;15.39;95.21
17615;BME280;8926;49.720;6.576;2022-10-16T05:54:22;99553.44;;;15.39;95.55
17615;BME280;8926;49.720;6.576;2022-10-16T05:56:47;99545.41;;;15.40;95.38
17615;BME280;8926;49.720;6.576;2022-10-16T05:59:13;99546.38;;;15.39;95.80
17615;BME280;8926;49.720;6.576;2022-10-16T06:01:38;99556.78;;;15.41;96.11
17615;BME280;8926;49.720;6.576;2022-10-16T06:04:03;99564.81;;;15.39;95.89
17615;BME280;8926;49.720;6.576;2022-10-16T06:06:29;99563.13;;;15.38;95.65
17615;BME280;8926;49.720;6.576;2022-10-16T06:08:56;99561.69;;;15.34;95.81
17615;BME280;8926;49.720;6.576;2022-10-16T06:11:27;99561.69;;;15.34;96.03
17615;BME280;8926;49.720;6.576;2022-10-16T06:13:55;99564.31;;;15.34;96.33
17615;BME280;8926;49.720;6.576;2022-10-16T06:16:22;99562.41;;;15.36;95.80
17615;BME280;8926;49.720;6.576;2022-10-16T06:18:50;99566.72;;;15.37;95.81
17615;BME280;8926;49.720;6.576;2022-10-16T06:21:19;99565.88;;;15.37;95.76
17615;BME280;8926;49.720;6.576;2022-10-16T06:23:44;99568.41;;;15.38;96.04
17615;BME280;8926;49.720;6.576;2022-10-16T06:26:15;99559.78;;;15.36;96.26
17615;BME280;8926;49.720;6.576;2022-10-16T06:28:41;99569.47;;;15.36;96.67
17615;BME280;8926;49.720;6.576;2022-10-16T06:31:07;99581.78;;;15.35;97.01
17615;BME280;8926;49.720;6.576;2022-10-16T06:33:34;99586.09;;;15.36;96.78
17615;BME280;8926;49.720;6.576;2022-10-16T06:36:04;99591.38;;;15.36;96.64
17615;BME280;8926;49.720;6.576;2022-10-16T06:38:30;99598.31;;;15.37;96.70
17615;BME280;8926;49.720;6.576;2022-10-16T06:40:56;99595.69;;;15.37;96.55
17615;BME280;8926;49.720;6.576;2022-10-16T06:43:22;99601.91;;;15.36;96.55
17615;BME280;8926;49.720;6.576;2022-10-16T06:45:54;99598.19;;;15.39;96.86
17615;BME280;8926;49.720;6.576;2022-10-16T06:48:21;99599.75;;;15.41;96.54
17615;BME280;8926;49.720;6.576;2022-10-16T06:51:08;99604.16;;;15.41;96.92
17615;BME280;8926;49.720;6.576;2022-10-16T06:53:35;99605.72;;;15.43;97.08
17615;BME280;8926;49.720;6.576;2022-10-16T06:56:12;99616.03;;;15.46;96.87
17615;BME280;8926;49.720;6.576;2022-10-16T06:58:38;99630.84;;;15.47;96.84
17615;BME280;8926;49.720;6.576;2022-10-16T07:01:06;99624.63;;;15.48;97.04
17615;BME280;8926;49.720;6.576;2022-10-16T07:03:32;99623.91;;;15.46;96.86
17615;BME280;8926;49.720;6.576;2022-10-16T07:06:02;99634.44;;;15.46;97.14
17615;BME280;8926;49.720;6.576;2022-10-16T07:08:31;99629.19;;;15.46;97.13
17615;BME280;8926;49.720;6.576;2022-10-16T07:11:00;99637.19;;;15.45;96.92
17615;BME280;8926;49.720;6.576;2022-10-16T07:13:26;99648.56;;;15.45;97.12
17615;BME280;8926;49.720;6.576;2022-10-16T07:15:51;99658.03;;;15.48;97.28
17615;BME280;8926;49.720;6.576;2022-10-16T07:18:17;99656.94;;;15.50;96.98
17615;BME280;8926;49.720;6.576;2022-10-16T07:20:42;99663.88;;;15.51;97.15
17615;BME280;8926;49.720;6.576;2022-10-16T07:23:07;99667.25;;;15.53;97.37
17615;BME280;8926;49.720;6.576;2022-10-16T07:25:32;99672.31;;;15.56;97.93
17615;BME280;8926;49.720;6.576;2022-10-16T07:27:58;99676.34;;;15.60;97.91
17615;BME280;8926;49.720;6.576;2022-10-16T07:30:23;99684.84;;;15.64;98.34
17615;BME280;8926;49.720;6.576;2022-10-16T07:32:48;99681.13;;;15.67;98.11
17615;BME280;8926;49.720;6.576;2022-10-16T07:35:14;99691.44;;;15.70;98.26
17615;BME280;8926;49.720;6.576;2022-10-16T07:37:39;99686.88;;;15.72;98.03
17615;BME280;8926;49.720;6.576;2022-10-16T07:40:05;99693.59;;;15.76;98.01
17615;BME280;8926;49.720;6.576;2022-10-16T07:42:30;99696.22;;;15.76;97.42
17615;BME280;8926;49.720;6.576;2022-10-16T07:44:56;99706.66;;;15.77;97.11
17615;BME280;8926;49.720;6.576;2022-10-16T07:47:21;99702.44;;;15.75;97.13
17615;BME280;8926;49.720;6.576;2022-10-16T07:49:46;99704.13;;;15.76;96.93
17615;BME280;8926;49.720;6.576;2022-10-16T07:52:11;99711.31;;;15.74;96.60
17615;BME280;8926;49.720;6.576;2022-10-16T07:54:37;99715.63;;;15.75;97.12
17615;BME280;8926;49.720;6.576;2022-10-16T07:57:02;99725.19;;;15.76;96.97
17615;BME280;8926;49.720;6.576;2022-10-16T07:59:27;99725.81;;;15.79;97.03
17615;BME280;8926;49.720;6.576;2022-10-16T08:01:52;99730.97;;;15.81;97.06
17615;BME280;8926;49.720;6.576;2022-10-16T08:04:18;99733.34;;;15.84;97.39
17615;BME280;8926;49.720;6.576;2022-10-16T08:06:43;99734.75;;;15.88;97.49
17615;BME280;8926;49.720;6.576;2022-10-16T08:09:09;99732.84;;;15.90;97.54
17615;BME280;8926;49.720;6.576;2022-10-16T08:11:34;99729.25;;;15.91;97.69
17615;BME280;8926;49.720;6.576;2022-10-16T08:14:00;99734.28;;;15.94;97.71
17615;BME280;8926;49.720;6.576;2022-10-16T08:16:25;99749.00;;;15.97;97.22
17615;BME280;8926;49.720;6.576;2022-10-16T08:18:50;99744.59;;;15.97;97.03
17615;BME280;8926;49.720;6.576;2022-10-16T08:21:19;99748.19;;;15.96;97.03
17615;BME280;8926;49.720;6.576;2022-10-16T08:23:45;99751.06;;;15.93;96.93
17615;BME280;8926;49.720;6.576;2022-10-16T08:26:11;99756.31;;;15.93;96.58
17615;BME280;8926;49.720;6.576;2022-10-16T08:28:37;99753.09;;;15.89;96.92
17615;BME280;8926;49.720;6.576;2022-10-16T08:31:13;99759.44;;;15.87;97.39
17615;BME280;8926;49.720;6.576;2022-10-16T08:33:41;99763.75;;;15.88;97.19
17615;BME280;8926;49.720;6.576;2022-10-16T08:36:08;99766.38;;;15.88;97.42
17615;BME280;8926;49.720;6.576;2022-10-16T08:38:34;99771.41;;;15.91;97.67
17615;BME280;8926;49.720;6.576;2022-10-16T08:41:42;99764.00;;;15.96;97.54
17615;BME280;8926;49.720;6.576;2022-10-16T08:47:23;99775.81;;;16.13;97.59
17615;BME280;8926;49.720;6.576;2022-10-16T08:49:57;99780.63;;;16.19;97.40
17615;BME280;8926;49.720;6.576;2022-10-16T08:52:25;99790.09;;;16.21;97.39
17615;BME280;8926;49.720;6.576;2022-10-16T08:54:54;99786.47;;;16.22;97.24
17615;BME280;8926;49.720;6.576;2022-10-16T08:57:21;99789.59;;;16.27;97.18
17615;BME280;8926;49.720;6.576;2022-10-16T08:59:48;99788.41;;;16.32;97.03
17615;BME280;8926;49.720;6.576;2022-10-16T09:02:28;99792.47;;;16.36;96.95
17615;BME280;8926;49.720;6.576;2022-10-16T09:10:39;99776.97;;;16.42;96.26
17615;BME280;8926;49.720;6.576;2022-10-16T09:13:19;99771.47;;;16.45;95.92
17615;BME280;8926;49.720;6.576;2022-10-16T09:21:14;99798.78;;;16.44;95.38
17615;BME280;8926;49.720;6.576;2022-10-16T09:23:40;99799.63;;;16.45;94.90
17615;BME280;8926;49.720;6.576;2022-10-16T09:26:11;99806.47;;;16.47;94.94
17615;BME280;8926;49.720;6.576;2022-10-16T09:28:37;99801.28;;;16.57;95.59
17615;BME280;8926;49.720;6.576;2022-10-16T09:31:02;99809.44;;;16.65;95.38
17615;BME280;8926;49.720;6.576;2022-10-16T09:33:32;99808.22;;;16.69;95.39
17615;BME280;8926;49.720;6.576;2022-10-16T09:35:58;99815.06;;;16.72;94.48
17615;BME280;8926;49.720;6.576;2022-10-16T09:38:28;99812.31;;;16.73;94.38
17615;BME280;8926;49.720;6.576;2022-10-16T09:40:55;99815.41;;;16.78;94.53
17615;BME280;8926;49.720;6.576;2022-10-16T09:46:31;99795.72;;;16.82;93.23
17615;BME280;8926;49.720;6.576;2022-10-16T09:49:05;99795.72;;;16.82;93.78
17615;BME280;8926;49.720;6.576;2022-10-16T09:51:35;99785.66;;;16.87;93.77
17615;BME280;8926;49.720;6.576;2022-10-16T09:54:13;99782.81;;;17.00;93.27
17615;BME280;8926;49.720;6.576;2022-10-16T09:56:38;99771.56;;;17.19;92.03
17615;BME280;8926;49.720;6.576;2022-10-16T09:59:13;99767.16;;;17.50;90.89
17615;BME280;8926;49.720;6.576;2022-10-16T10:04:06;99770.03;;;18.28;87.85
17615;BME280;8926;49.720;6.576;2022-10-16T10:06:36;99770.06;;;18.38;86.84
17615;BME280;8926;49.720;6.576;2022-10-16T10:11:49;99776.75;;;18.52;87.38
17615;BME280;8926;49.720;6.576;2022-10-16T10:16:43;99783.16;;;18.49;86.03
17615;BME280;8926;49.720;6.576;2022-10-16T10:19:23;99784.63;;;18.63;85.65
17615;BME280;8926;49.720;6.576;2022-10-16T10:21:50;99776.25;;;18.77;85.88
17615;BME280;8926;49.720;6.576;2022-10-16T10:24:18;99775.56;;;18.66;84.36
17615;BME280;8926;49.720;6.576;2022-10-16T10:26:51;99778.34;;;18.64;85.56
17615;BME280;8926;49.720;6.576;2022-10-16T10:42:40;99794.75;;;18.58;85.45
17615;BME280;8926;49.720;6.576;2022-10-16T10:45:24;99795.91;;;18.84;84.96
17615;BME280;8926;49.720;6.576;2022-10-16T10:48:40;99787.53;;;18.79;84.33
17615;BME280;8926;49.720;6.576;2022-10-16T10:51:15;99796.34;;;18.70;84.99
17615;BME280;8926;49.720;6.576;2022-10-16T10:53:45;99787.53;;;18.60;85.76
17615;BME280;8926;49.720;6.576;2022-10-16T10:56:26;99790.97;;;18.51;85.75
17615;BME280;8926;49.720;6.576;2022-10-16T11:01:59;99791.63;;;18.34;86.03
17615;BME280;8926;49.720;6.576;2022-10-16T11:07:04;99797.97;;;18.21;86.47
17615;BME280;8926;49.720;6.576;2022-10-16T11:09:37;99811.31;;;18.10;86.60
17615;BME280;8926;49.720;6.576;2022-10-16T11:12:34;99810.88;;;18.05;86.66
17615;BME280;8926;49.720;6.576;2022-10-16T11:17:48;99814.31;;;17.96;87.63
17615;BME280;8926;49.720;6.576;2022-10-16T11:20:23;99813.34;;;17.97;88.15
17615;BME280;8926;49.720;6.576;2022-10-16T11:23:15;99807.06;;;17.98;87.41
17615;BME280;8926;49.720;6.576;2022-10-16T11:25:43;99812.38;;;17.98;88.20
17615;BME280;8926;49.720;6.576;2022-10-16T11:28:25;99813.19;;;17.98;88.35
17615;BME280;8926;49.720;6.576;2022-10-16T11:31:09;99810.69;;;17.97;87.74
17615;BME280;8926;49.720;6.576;2022-10-16T11:33:41;99804.44;;;17.98;88.03
17615;BME280;8926;49.720;6.576;2022-10-16T11:36:12;99806.81;;;18.01;88.40
17615;BME280;8926;49.720;6.576;2022-10-16T11:41:46;99794.63;;;18.10;88.66
17615;BME280;8926;49.720;6.576;2022-10-16T11:46:47;99793.00;;;18.18;88.28
17615;BME280;8926;49.720;6.576;2022-10-16T11:49:21;99793.25;;;18.25;88.36
17615;BME280;8926;49.720;6.576;2022-10-16T11:54:50;99793.13;;;18.26;87.77
17615;BME280;8926;49.720;6.576;2022-10-16T11:57:23;99795.50;;;18.29;88.37
17615;BME280;8926;49.720;6.576;2022-10-16T11:59:54;99790.91;;;18.31;88.38
17615;BME280;8926;49.720;6.576;2022-10-16T12:02:31;99792.47;;;18.34;88.36
17615;BME280;8926;49.720;6.576;2022-10-16T12:08:13;99794.72;;;18.39;88.16
17615;BME280;8926;49.720;6.576;2022-10-16T12:10:41;99786.91;;;18.37;87.81
17615;BME280;8926;49.720;6.576;2022-10-16T12:13:46;99786.34;;;18.34;88.03
17615;BME280;8926;49.720;6.576;2022-10-16T12:18:40;99784.66;;;18.33;88.39
17615;BME280;8926;49.720;6.576;2022-10-16T12:21:06;99792.88;;;18.29;88.59
17615;BME280;8926;49.720;6.576;2022-10-16T12:23:46;99788.28;;;18.31;88.84
17615;BME280;8926;49.720;6.576;2022-10-16T12:26:12;99788.53;;;18.28;88.02
17615;BME280;8926;49.720;6.576;2022-10-16T12:28:38;99786.88;;;18.27;87.93
17615;BME280;8926;49.720;6.576;2022-10-16T12:31:07;99792.16;;;18.27;88.06
17615;BME280;8926;49.720;6.576;2022-10-16T12:33:42;99788.53;;;18.28;87.27
17615;BME280;8926;49.720;6.576;2022-10-16T12:36:25;99799.97;;;18.29;87.61
17615;BME280;8926;49.720;6.576;2022-10-16T12:38:52;99796.91;;;18.34;88.92
17615;BME280;8926;49.720;6.576;2022-10-16T12:41:26;99784.41;;;18.36;88.65
17615;BME280;8926;49.720;6.576;2022-10-16T12:43:52;99781.63;;;18.37;88.67
17615;BME280;8926;49.720;6.576;2022-10-16T12:48:44;99775.78;;;18.53;89.07
17615;BME280;8926;49.720;6.576;2022-10-16T12:53:36;99773.84;;;18.55;88.11
17615;BME280;8926;49.720;6.576;2022-10-16T12:56:21;99778.63;;;18.61;88.92
17615;BME280;8926;49.720;6.576;2022-10-16T13:04:55;99767.16;;;18.51;89.13
17615;BME280;8926;49.720;6.576;2022-10-16T13:07:52;99766.88;;;18.54;89.06
17615;BME280;8926;49.720;6.576;2022-10-16T13:10:28;99771.38;;;18.63;88.77
17615;BME280;8926;49.720;6.576;2022-10-16T13:13:18;99774.47;;;18.68;89.09
17615;BME280;8926;49.720;6.576;2022-10-16T13:21:43;99776.41;;;18.85;87.98
17615;BME280;8926;49.720;6.576;2022-10-16T13:24:37;99776.00;;;18.90;87.39
17615;BME280;8926;49.720;6.576;2022-10-16T13:27:18;99778.25;;;18.94;87.02
17615;BME280;8926;49.720;6.576;2022-10-16T13:29:52;99769.47;;;18.94;86.66
17615;BME280;8926;49.720;6.576;2022-10-16T13:32:19;99773.66;;;18.96;86.94
17615;BME280;8926;49.720;6.576;2022-10-16T13:34:46;99773.34;;;18.99;86.69
17615;BME280;8926;49.720;6.576;2022-10-16T13:37:20;99773.06;;;19.03;86.21
17615;BME280;8926;49.720;6.576;2022-10-16T13:39:46;99767.47;;;19.06;86.59
17615;BME280;8926;49.720;6.576;2022-10-16T13:42:30;99778.06;;;19.06;86.33
17615;BME280;8926;49.720;6.576;2022-10-16T13:44:56;99773.75;;;19.05;86.74
17615;BME280;8926;49.720;6.576;2022-10-16T13:47:23;99773.06;;;19.03;86.16
17615;BME280;8926;49.720;6.576;2022-10-16T13:50:01;99772.50;;;18.99;86.39
17615;BME280;8926;49.720;6.576;2022-10-16T13:52:28;99770.00;;;18.97;86.90
17615;BME280;8926;49.720;6.576;2022-10-16T13:54:53;99775.59;;;18.94;86.51
17615;BME280;8926;49.720;6.576;2022-10-16T13:57:22;99771.41;;;18.92;86.32
17615;BME280;8926;49.720;6.576;2022-10-16T13:59:48;99762.22;;;18.86;86.43
17615;BME280;8926;49.720;6.576;2022-10-16T14:02:22;99769.44;;;18.84;85.75
17615;BME280;8926;49.720;6.576;2022-10-16T14:04:50;99771.41;;;18.82;86.22
17615;BME280;8926;49.720;6.576;2022-10-16T14:07:24;99768.03;;;18.80;85.88
17615;BME280;8926;49.720;6.576;2022-10-16T14:09:51;99772.50;;;18.80;86.11
17615;BME280;8926;49.720;6.576;2022-10-16T14:12:17;99764.44;;;18.81;86.54
17615;BME280;8926;49.720;6.576;2022-10-16T14:14:47;99765.13;;;18.83;86.89
17615;BME280;8926;49.720;6.576;2022-10-16T14:17:22;99760.53;;;18.85;87.12
17615;BME280;8926;49.720;6.576;2022-10-16T14:19:50;99757.88;;;18.85;88.34
17615;BME280;8926;49.720;6.576;2022-10-16T14:24:55;99755.22;;;18.85;88.95
17615;BME280;8926;49.720;6.576;2022-10-16T14:27:35;99758.84;;;18.84;87.65
17615;BME280;8926;49.720;6.576;2022-10-16T14:30:12;99739.63;;;18.82;87.80
17615;BME280;8926;49.720;6.576;2022-10-16T14:32:41;99742.97;;;18.84;87.94
17615;BME280;8926;49.720;6.576;2022-10-16T14:37:56;99751.75;;;18.85;88.80
17615;BME280;8926;49.720;6.576;2022-10-16T14:40:25;99749.94;;;18.85;88.54
17615;BME280;8926;49.720;6.576;2022-10-16T14:42:52;99743.81;;;18.85;88.43
17615;BME280;8926;49.720;6.576;2022-10-16T14:45:23;99751.63;;;18.86;88.45
17615;BME280;8926;49.720;6.576;2022-10-16T14:47:52;99750.22;;;18.82;89.11
17615;BME280;8926;49.720;6.576;2022-10-16T14:50:19;99741.31;;;18.83;89.40